EW2604 Weather Reports


Display with metric or nautical units.
time (UTC)temp
F
wind
direction
speed
MPH
gust
MPH
rain 1hr
in
rain 24hr
in
rain mn
in
humidity
%
barometer
mb
20190526084732 67 119 0.0 0.0 0.00 0.01 0.00 98 1014.3
20190526083008 67 119 0.0 0.0 0.00 0.01 0.00 98 1014.4
20190526081551 67 119 0.0 0.0 0.00 0.01 0.00 98 1014.4
20190526080054 68 120 0.0 0.0 0.00 0.01 0.00 98 1014.4
20190526074508 68 119 0.0 0.0 0.00 0.01 0.00 98 1014.5
20190526071632 68 119 0.0 0.0 0.00 0.01 0.00 98 1014.2
20190526070051 68 119 0.0 0.0 0.00 0.01 0.00 98 1014.3
20190526064553 69 119 0.0 0.0 0.00 0.01 0.00 97 1014.4
20190526063029 69 119 0.0 0.0 0.00 0.01 0.00 97 1014.4
20190526061653 69 119 0.0 0.0 0.00 0.01 0.00 97 1014.5
20190526060135 69 119 0.0 0.0 0.00 0.01 0.00 97 1014.6
20190526054619 70 119 0.0 0.0 0.00 0.01 0.00 97 1014.6
20190526053119 70 119 0.0 0.0 0.00 0.01 0.00 97 1014.5
20190526051629 70 119 0.0 0.0 0.00 0.01 0.00 96 1014.6
20190526044948 71 119 0.0 0.0 0.00 0.01 0.01 95 1014.3
20190526044513 71 119 0.0 0.0 0.00 0.01 0.01 96 1014.3
20190526041628 72 119 0.0 0.0 0.00 0.01 0.01 94 1013.9
20190526040111 73 119 0.0 0.0 0.00 0.01 0.01 93 1013.9
20190526034705 73 119 0.0 0.0 0.00 0.01 0.01 94 1013.6
20190526034502 73 119 0.0 0.0 0.00 0.01 0.01 94 1013.6
20190526033044 73 119 0.0 0.0 0.00 0.01 0.01 95 1013.4
20190526031529 73 119 0.0 0.0 0.00 0.01 0.01 95 1013.5
20190526030107 73 119 0.0 0.0 0.00 0.01 0.01 95 1013.4
20190526024707 73 119 0.0 0.0 0.00 0.01 0.01 94 1013.4
20190526021616 74 119 0.0 0.0 0.00 0.01 0.01 92 1013.1
20190526020108 75 119 0.0 0.0 0.00 0.01 0.01 90 1012.9
20190526014556 76 119 0.0 0.0 0.00 0.01 0.01 89 1012.7
20190526013038 77 119 0.0 0.0 0.00 0.01 0.01 86 1012.6
20190526011736 79 119 0.0 0.0 0.00 0.01 0.01 83 1012.6
20190526010150 81 119 0.0 0.0 0.00 0.01 0.01 80 1012.7
20190526004621 83 119 0.0 0.0 0.00 0.01 0.01 78 1012.7
20190526003027 87 119 0.0 0.0 0.00 0.01 0.01 70 1012.9
20190526001522 90 119 0.0 0.0 0.00 0.01 0.01 65 1013.1
20190526000035 92 119 0.0 0.0 0.00 0.01 0.01 60 1013.1
20190525234531 93 231 0.0 0.0 0.00 0.01 0.01 60 1013.2
20190525233016 93 224 0.0 0.0 0.00 0.01 0.01 58 1013.2
20190525231513 93 269 0.0 0.0 0.00 0.01 0.01 58 1013.3
20190525230016 92 190 0.0 0.0 0.00 0.01 0.01 59 1013.3
20190525224529 92 133 0.0 0.0 0.00 0.01 0.01 56 1013.6
20190525223029 90 96 0.0 0.0 0.00 0.01 0.01 62 1013.6
20190525221545 89 118 0.0 0.0 0.00 0.01 0.01 64 1013.6
20190525220002 90 217 0.0 0.0 0.00 0.01 0.01 58 1013.5
20190525214514 91 219 0.0 0.0 0.00 0.01 0.01 57 1013.7
20190525213019 91 258 0.0 0.0 0.00 0.01 0.01 57 1013.7
20190525211543 90 181 0.0 0.0 0.00 0.01 0.01 57 1013.7
20190525210057 90 326 0.0 0.0 0.00 0.01 0.01 56 1013.9
20190525204549 90 124 0.0 0.0 0.00 0.01 0.01 59 1014.0
20190525203054 90 250 0.0 0.0 0.00 0.01 0.01 57 1014.0
20190525201619 89 266 0.0 0.0 0.00 0.01 0.01 60 1014.2
20190525200132 89 9 0.0 0.0 0.00 0.01 0.01 61 1014.2
20190525194617 89 86 0.0 0.0 0.00 0.01 0.01 58 1014.3
20190525193100 89 160 0.0 0.0 0.00 0.01 0.01 66 1014.2
20190525191609 88 213 0.0 0.0 0.01 0.01 0.01 60 1014.3
20190525190052 88 321 0.0 0.0 0.01 0.01 0.01 60 1014.4
20190525184512 87 253 0.0 0.0 0.01 0.01 0.01 63 1014.4
20190525183020 87 288 0.0 0.0 0.01 0.01 0.01 66 1014.5
20190525181518 86 101 0.0 0.0 0.00 0.00 0.00 63 1014.5
20190525180124 86 354 0.0 0.0 0.00 0.00 0.00 64 1014.7
20190525174613 85 244 0.0 0.0 0.00 0.00 0.00 66 1014.8
20190525173105 85 305 0.0 0.0 0.00 0.00 0.00 66 1014.9
20190525171523 85 271 0.0 0.0 0.00 0.00 0.00 68 1014.8
20190525170042 84 90 0.0 0.0 0.00 0.00 0.00 69 1014.9
20190525163116 81 316 0.0 0.0 0.00 0.00 0.00 75 1014.9
20190525161645 79 305 0.0 0.0 0.00 0.00 0.00 79 1015.1
20190525154548 76 193 0.0 0.0 0.00 0.00 0.00 84 1014.9
20190525153046 75 110 0.0 0.0 0.00 0.00 0.00 87 1014.8
20190525151530 74 143 0.0 0.0 0.00 0.00 0.00 87 1014.8
20190525150020 74 121 0.0 0.0 0.00 0.00 0.00 89 1014.8
20190525144713 74 121 0.0 0.0 0.00 0.00 0.00 89 1014.9
20190525143113 73 202 0.0 0.0 0.00 0.00 0.00 89 1014.7
20190525141657 72 337 0.0 0.0 0.00 0.00 0.00 90 1014.7
20190525140141 71 244 0.0 0.0 0.00 0.00 0.00 92 1014.3
20190525134703 71 139 0.0 0.0 0.00 0.00 0.00 93 1014.4
20190525133309 70 56 0.0 0.0 0.00 0.00 0.00 95 1014.5
20190525131659 69 56 0.0 0.0 0.00 0.00 0.00 96 1014.1
20190525130207 69 325 0.0 0.0 0.00 0.00 0.00 96 1014.0
20190525124523 68 45 0.0 0.0 0.00 0.00 0.00 97 1013.6
20190525123052 68 115 0.0 0.0 0.00 0.00 0.00 98 1013.3
20190525121625 67 115 0.0 0.0 0.00 0.00 0.00 98 1012.7
20190525120159 66 115 0.0 0.0 0.00 0.00 0.00 98 1013.7
20190525114639 66 115 0.0 0.0 0.00 0.00 0.00 98 1013.7
20190525113058 65 115 0.0 0.0 0.00 0.00 0.00 97 1014.0
20190525111533 65 115 0.0 0.0 0.00 0.00 0.00 97 1014.0
20190525104644 66 115 0.0 0.0 0.00 0.00 0.00 96 1013.7
20190525103143 66 115 0.0 0.0 0.00 0.00 0.00 96 1013.7
20190525101652 66 115 0.0 0.0 0.00 0.00 0.00 96 1013.7
20190525100047 66 120 0.0 0.0 0.00 0.00 0.00 96 1014.1
20190525094537 67 302 0.0 0.0 0.00 0.00 0.00 96 1013.7
20190525093136 67 70 0.0 0.0 0.00 0.00 0.00 94 1013.3
20190525091531 67 70 0.0 0.0 0.00 0.00 0.00 93 1013.1